sensor_id;sensor_type;location;lat;lon;timestamp;temperature;humidity
48043;DHT22;33988;47.992;8.820;2022-09-20T00:01:36;11.60;56.20
48043;DHT22;33988;47.992;8.820;2022-09-20T00:04:03;11.60;56.30
48043;DHT22;33988;47.992;8.820;2022-09-20T00:06:33;11.60;56.20
48043;DHT22;33988;47.992;8.820;2022-09-20T00:09:00;11.60;56.20
48043;DHT22;33988;47.992;8.820;2022-09-20T00:11:31;11.50;56.20
48043;DHT22;33988;47.992;8.820;2022-09-20T00:14:04;11.50;56.20
48043;DHT22;33988;47.992;8.820;2022-09-20T00:16:38;11.50;56.30
48043;DHT22;33988;47.992;8.820;2022-09-20T00:19:17;11.50;56.40
48043;DHT22;33988;47.992;8.820;2022-09-20T00:21:48;11.40;56.50
48043;DHT22;33988;47.992;8.820;2022-09-20T00:24:15;11.40;56.50
48043;DHT22;33988;47.992;8.820;2022-09-20T00:26:42;11.40;56.50
48043;DHT22;33988;47.992;8.820;2022-09-20T00:29:12;11.40;56.50
48043;DHT22;33988;47.992;8.820;2022-09-20T00:31:39;11.40;56.50
48043;DHT22;33988;47.992;8.820;2022-09-20T00:34:11;11.40;56.60
48043;DHT22;33988;47.992;8.820;2022-09-20T00:36:59;11.40;56.60
48043;DHT22;33988;47.992;8.820;2022-09-20T00:39:26;11.30;56.50
48043;DHT22;33988;47.992;8.820;2022-09-20T00:41:53;11.30;56.50
48043;DHT22;33988;47.992;8.820;2022-09-20T00:50:04;11.20;56.50
48043;DHT22;33988;47.992;8.820;2022-09-20T00:52:34;11.20;56.50
48043;DHT22;33988;47.992;8.820;2022-09-20T00:55:05;11.20;56.50
48043;DHT22;33988;47.992;8.820;2022-09-20T00:57:34;11.20;56.50
48043;DHT22;33988;47.992;8.820;2022-09-20T01:00:06;11.20;56.60
48043;DHT22;33988;47.992;8.820;2022-09-20T01:02:44;11.20;56.60
48043;DHT22;33988;47.992;8.820;2022-09-20T01:05:17;11.20;56.60
48043;DHT22;33988;47.992;8.820;2022-09-20T01:07:46;11.10;56.60
48043;DHT22;33988;47.992;8.820;2022-09-20T01:10:19;11.10;56.60
48043;DHT22;33988;47.992;8.820;2022-09-20T01:12:46;11.10;56.60
48043;DHT22;33988;47.992;8.820;2022-09-20T01:15:15;11.10;56.70
48043;DHT22;33988;47.992;8.820;2022-09-20T01:17:45;11.10;56.70
48043;DHT22;33988;47.992;8.820;2022-09-20T01:20:32;11.00;56.70
48043;DHT22;33988;47.992;8.820;2022-09-20T01:28:49;11.00;57.00
48043;DHT22;33988;47.992;8.820;2022-09-20T01:31:28;11.00;56.80
48043;DHT22;33988;47.992;8.820;2022-09-20T01:42:17;10.90;56.90
48043;DHT22;33988;47.992;8.820;2022-09-20T01:44:59;10.90;56.80
48043;DHT22;33988;47.992;8.820;2022-09-20T02:09:07;10.70;57.30
48043;DHT22;33988;47.992;8.820;2022-09-20T02:41:52;10.60;57.60
48043;DHT22;33988;47.992;8.820;2022-09-20T02:47:34;10.60;57.60
48043;DHT22;33988;47.992;8.820;2022-09-20T02:54:10;10.60;57.60
48043;DHT22;33988;47.992;8.820;2022-09-20T02:56:49;10.50;57.70
48043;DHT22;33988;47.992;8.820;2022-09-20T02:59:32;10.60;57.60
48043;DHT22;33988;47.992;8.820;2022-09-20T03:04:55;10.40;57.70
48043;DHT22;33988;47.992;8.820;2022-09-20T03:13:39;10.40;57.60
48043;DHT22;33988;47.992;8.820;2022-09-20T03:16:33;10.40;57.60
48043;DHT22;33988;47.992;8.820;2022-09-20T03:28:10;10.30;57.60
48043;DHT22;33988;47.992;8.820;2022-09-20T03:42:51;10.20;58.00
48043;DHT22;33988;47.992;8.820;2022-09-20T03:54:33;10.20;58.20
48043;DHT22;33988;47.992;8.820;2022-09-20T04:00:20;10.20;58.10
48043;DHT22;33988;47.992;8.820;2022-09-20T04:06:46;10.10;58.20
48043;DHT22;33988;47.992;8.820;2022-09-20T04:10:01;10.10;58.20
48043;DHT22;33988;47.992;8.820;2022-09-20T04:21:55;10.10;58.10
48043;DHT22;33988;47.992;8.820;2022-09-20T04:27:16;10.10;58.20
48043;DHT22;33988;47.992;8.820;2022-09-20T04:38:18;10.20;58.20
48043;DHT22;33988;47.992;8.820;2022-09-20T05:07:33;10.20;58.20
48043;DHT22;33988;47.992;8.820;2022-09-20T05:13:43;10.10;58.10
48043;DHT22;33988;47.992;8.820;2022-09-20T05:19:48;10.10;58.00
48043;DHT22;33988;47.992;8.820;2022-09-20T05:28:06;10.10;58.20
48043;DHT22;33988;47.992;8.820;2022-09-20T05:30:45;10.10;58.20
48043;DHT22;33988;47.992;8.820;2022-09-20T05:33:42;10.10;58.20
48043;DHT22;33988;47.992;8.820;2022-09-20T05:36:37;10.10;58.30
48043;DHT22;33988;47.992;8.820;2022-09-20T05:42:24;10.00;58.40
48043;DHT22;33988;47.992;8.820;2022-09-20T05:48:34;10.00;58.40
48043;DHT22;33988;47.992;8.820;2022-09-20T05:56:47;9.90;58.10
48043;DHT22;33988;47.992;8.820;2022-09-20T06:00:07;9.80;58.40
48043;DHT22;33988;47.992;8.820;2022-09-20T06:06:03;9.90;58.30
48043;DHT22;33988;47.992;8.820;2022-09-20T06:19:59;9.80;58.70
48043;DHT22;33988;47.992;8.820;2022-09-20T06:22:51;9.90;58.40
48043;DHT22;33988;47.992;8.820;2022-09-20T06:25:25;9.90;58.70
48043;DHT22;33988;47.992;8.820;2022-09-20T06:28:04;10.00;58.70
48043;DHT22;33988;47.992;8.820;2022-09-20T06:30:42;10.00;58.80
48043;DHT22;33988;47.992;8.820;2022-09-20T06:33:25;10.10;58.90
48043;DHT22;33988;47.992;8.820;2022-09-20T06:42:00;10.20;58.90
48043;DHT22;33988;47.992;8.820;2022-09-20T06:44:27;10.30;58.90
48043;DHT22;33988;47.992;8.820;2022-09-20T06:46:56;10.30;58.80
48043;DHT22;33988;47.992;8.820;2022-09-20T06:49:25;10.30;58.80
48043;DHT22;33988;47.992;8.820;2022-09-20T06:51:57;10.40;58.80
48043;DHT22;33988;47.992;8.820;2022-09-20T06:54:28;10.40;58.80
48043;DHT22;33988;47.992;8.820;2022-09-20T06:57:00;10.40;58.80
48043;DHT22;33988;47.992;8.820;2022-09-20T06:59:29;10.50;58.80
48043;DHT22;33988;47.992;8.820;2022-09-20T07:02:00;10.50;58.90
48043;DHT22;33988;47.992;8.820;2022-09-20T07:04:27;10.50;59.10
48043;DHT22;33988;47.992;8.820;2022-09-20T07:07:03;10.50;59.10
48043;DHT22;33988;47.992;8.820;2022-09-20T07:09:35;10.60;59.20
48043;DHT22;33988;47.992;8.820;2022-09-20T07:12:02;10.60;59.20
48043;DHT22;33988;47.992;8.820;2022-09-20T07:14:29;10.70;59.30
48043;DHT22;33988;47.992;8.820;2022-09-20T07:16:58;10.70;59.50
48043;DHT22;33988;47.992;8.820;2022-09-20T07:19:25;10.70;59.40
48043;DHT22;33988;47.992;8.820;2022-09-20T07:21:52;10.80;59.50
48043;DHT22;33988;47.992;8.820;2022-09-20T07:24:23;10.90;59.50
48043;DHT22;33988;47.992;8.820;2022-09-20T07:26:55;11.00;59.50
48043;DHT22;33988;47.992;8.820;2022-09-20T07:29:26;11.10;59.60
48043;DHT22;33988;47.992;8.820;2022-09-20T07:31:57;11.20;59.50
48043;DHT22;33988;47.992;8.820;2022-09-20T07:34:24;11.20;59.60
48043;DHT22;33988;47.992;8.820;2022-09-20T07:36:52;11.30;59.80
48043;DHT22;33988;47.992;8.820;2022-09-20T07:39:19;11.50;60.20
48043;DHT22;33988;47.992;8.820;2022-09-20T07:41:48;11.60;60.10
48043;DHT22;33988;47.992;8.820;2022-09-20T07:44:17;11.70;60.30
48043;DHT22;33988;47.992;8.820;2022-09-20T07:46:51;11.90;60.60
48043;DHT22;33988;47.992;8.820;2022-09-20T07:49:24;12.10;60.60
48043;DHT22;33988;47.992;8.820;2022-09-20T07:51:55;12.30;60.60
48043;DHT22;33988;47.992;8.820;2022-09-20T07:54:23;12.60;60.60
48043;DHT22;33988;47.992;8.820;2022-09-20T07:56:53;12.80;60.40
48043;DHT22;33988;47.992;8.820;2022-09-20T07:59:25;13.00;60.40
48043;DHT22;33988;47.992;8.820;2022-09-20T08:01:59;13.20;60.70
48043;DHT22;33988;47.992;8.820;2022-09-20T08:04:28;13.60;61.90
48043;DHT22;33988;47.992;8.820;2022-09-20T08:06:57;14.00;61.20
48043;DHT22;33988;47.992;8.820;2022-09-20T08:09:26;14.40;61.30
48043;DHT22;33988;47.992;8.820;2022-09-20T08:11:53;14.90;61.30
48043;DHT22;33988;47.992;8.820;2022-09-20T08:14:21;15.40;61.10
48043;DHT22;33988;47.992;8.820;2022-09-20T08:16:50;16.00;60.50
48043;DHT22;33988;47.992;8.820;2022-09-20T08:19:23;16.50;59.80
48043;DHT22;33988;47.992;8.820;2022-09-20T08:21:52;17.10;58.80
48043;DHT22;33988;47.992;8.820;2022-09-20T08:24:21;17.60;58.40
48043;DHT22;33988;47.992;8.820;2022-09-20T08:26:54;18.20;57.80
48043;DHT22;33988;47.992;8.820;2022-09-20T08:29:24;18.70;57.00
48043;DHT22;33988;47.992;8.820;2022-09-20T08:31:55;19.30;56.30
48043;DHT22;33988;47.992;8.820;2022-09-20T08:34:28;19.80;55.60
48043;DHT22;33988;47.992;8.820;2022-09-20T08:36:56;20.30;54.80
48043;DHT22;33988;47.992;8.820;2022-09-20T08:39:23;20.80;54.10
48043;DHT22;33988;47.992;8.820;2022-09-20T08:44:50;21.70;52.10
48043;DHT22;33988;47.992;8.820;2022-09-20T08:47:26;22.10;51.10
48043;DHT22;33988;47.992;8.820;2022-09-20T08:50:03;22.60;50.60
48043;DHT22;33988;47.992;8.820;2022-09-20T08:52:38;23.00;49.30
48043;DHT22;33988;47.992;8.820;2022-09-20T08:55:18;23.30;48.60
48043;DHT22;33988;47.992;8.820;2022-09-20T08:57:53;23.60;47.40
48043;DHT22;33988;47.992;8.820;2022-09-20T09:00:31;23.90;46.90
48043;DHT22;33988;47.992;8.820;2022-09-20T09:03:04;24.10;45.70
48043;DHT22;33988;47.992;8.820;2022-09-20T09:05:36;24.40;45.30
48043;DHT22;33988;47.992;8.820;2022-09-20T09:08:12;24.50;44.80
48043;DHT22;33988;47.992;8.820;2022-09-20T09:10:48;24.70;43.90
48043;DHT22;33988;47.992;8.820;2022-09-20T09:13:28;24.90;44.00
48043;DHT22;33988;47.992;8.820;2022-09-20T09:16:05;25.00;43.20
48043;DHT22;33988;47.992;8.820;2022-09-20T09:18:40;25.10;43.30
48043;DHT22;33988;47.992;8.820;2022-09-20T09:21:17;25.30;42.90
48043;DHT22;33988;47.992;8.820;2022-09-20T09:26:23;25.60;41.70
48043;DHT22;33988;47.992;8.820;2022-09-20T09:31:47;25.80;40.30
48043;DHT22;33988;47.992;8.820;2022-09-20T09:34:26;26.00;40.60
48043;DHT22;33988;47.992;8.820;2022-09-20T09:36:57;26.00;39.70
48043;DHT22;33988;47.992;8.820;2022-09-20T09:39:32;25.90;41.50
48043;DHT22;33988;47.992;8.820;2022-09-20T09:42:23;26.20;39.70
48043;DHT22;33988;47.992;8.820;2022-09-20T09:44:53;26.10;39.10
48043;DHT22;33988;47.992;8.820;2022-09-20T09:47:38;26.10;39.00
48043;DHT22;33988;47.992;8.820;2022-09-20T09:50:06;25.80;38.00
48043;DHT22;33988;47.992;8.820;2022-09-20T09:52:40;25.60;37.80
48043;DHT22;33988;47.992;8.820;2022-09-20T09:59:00;24.80;37.60
48043;DHT22;33988;47.992;8.820;2022-09-20T10:13:56;22.90;38.90
48043;DHT22;33988;47.992;8.820;2022-09-20T10:23:22;21.90;40.30
48043;DHT22;33988;47.992;8.820;2022-09-20T10:32:35;21.20;42.10
48043;DHT22;33988;47.992;8.820;2022-09-20T10:38:19;20.90;41.80
48043;DHT22;33988;47.992;8.820;2022-09-20T10:47:16;20.60;42.20
48043;DHT22;33988;47.992;8.820;2022-09-20T11:07:16;21.50;40.90
48043;DHT22;33988;47.992;8.820;2022-09-20T11:10:00;21.60;41.20
48043;DHT22;33988;47.992;8.820;2022-09-20T11:12:40;21.60;40.70
48043;DHT22;33988;47.992;8.820;2022-09-20T11:15:26;21.50;40.90
48043;DHT22;33988;47.992;8.820;2022-09-20T11:29:00;21.40;41.00
48043;DHT22;33988;47.992;8.820;2022-09-20T11:31:39;21.40;40.90
48043;DHT22;33988;47.992;8.820;2022-09-20T11:34:53;21.40;40.80
48043;DHT22;33988;47.992;8.820;2022-09-20T11:37:14;21.30;40.30
48043;DHT22;33988;47.992;8.820;2022-09-20T11:39:55;21.30;40.80
48043;DHT22;33988;47.992;8.820;2022-09-20T11:42:33;21.20;40.60
48043;DHT22;33988;47.992;8.820;2022-09-20T11:45:03;21.20;40.70
48043;DHT22;33988;47.992;8.820;2022-09-20T11:47:43;21.20;40.70
48043;DHT22;33988;47.992;8.820;2022-09-20T11:56:28;21.00;40.30
48043;DHT22;33988;47.992;8.820;2022-09-20T11:59:00;21.10;40.40
48043;DHT22;33988;47.992;8.820;2022-09-20T12:09:50;21.00;40.20
48043;DHT22;33988;47.992;8.820;2022-09-20T12:12:46;21.00;40.10
48043;DHT22;33988;47.992;8.820;2022-09-20T12:15:43;20.90;40.90
48043;DHT22;33988;47.992;8.820;2022-09-20T12:29:00;20.70;40.50
48043;DHT22;33988;47.992;8.820;2022-09-20T12:31:55;20.60;40.30
48043;DHT22;33988;47.992;8.820;2022-09-20T12:39:36;20.40;41.00
48043;DHT22;33988;47.992;8.820;2022-09-20T12:50:14;20.20;41.70
48043;DHT22;33988;47.992;8.820;2022-09-20T12:53:03;20.20;41.90
48043;DHT22;33988;47.992;8.820;2022-09-20T13:00:49;20.10;41.30
48043;DHT22;33988;47.992;8.820;2022-09-20T13:03:40;20.10;41.10
48043;DHT22;33988;47.992;8.820;2022-09-20T13:14:28;19.90;41.00
48043;DHT22;33988;47.992;8.820;2022-09-20T13:17:05;19.80;41.00
48043;DHT22;33988;47.992;8.820;2022-09-20T13:19:47;19.80;41.40
48043;DHT22;33988;47.992;8.820;2022-09-20T13:25:14;19.90;41.40
48043;DHT22;33988;47.992;8.820;2022-09-20T13:30:25;20.00;41.50
48043;DHT22;33988;47.992;8.820;2022-09-20T13:33:22;20.10;41.30
48043;DHT22;33988;47.992;8.820;2022-09-20T13:35:50;20.10;41.20
48043;DHT22;33988;47.992;8.820;2022-09-20T13:38:21;20.00;41.70
48043;DHT22;33988;47.992;8.820;2022-09-20T13:41:02;20.10;41.20
48043;DHT22;33988;47.992;8.820;2022-09-20T13:43:43;20.10;41.10
48043;DHT22;33988;47.992;8.820;2022-09-20T13:46:14;20.10;41.30
48043;DHT22;33988;47.992;8.820;2022-09-20T13:48:58;20.10;41.50
48043;DHT22;33988;47.992;8.820;2022-09-20T13:51:35;20.00;41.40
48043;DHT22;33988;47.992;8.820;2022-09-20T13:56:59;19.80;41.40
48043;DHT22;33988;47.992;8.820;2022-09-20T13:59:38;19.80;41.60
48043;DHT22;33988;47.992;8.820;2022-09-20T14:02:26;19.80;41.30
48043;DHT22;33988;47.992;8.820;2022-09-20T14:05:04;19.70;41.40
48043;DHT22;33988;47.992;8.820;2022-09-20T14:07:33;19.70;41.70
48043;DHT22;33988;47.992;8.820;2022-09-20T14:13:01;19.60;41.20
48043;DHT22;33988;47.992;8.820;2022-09-20T14:15:36;19.70;41.70
48043;DHT22;33988;47.992;8.820;2022-09-20T14:18:06;19.60;41.70
48043;DHT22;33988;47.992;8.820;2022-09-20T14:20:39;19.60;41.70
48043;DHT22;33988;47.992;8.820;2022-09-20T14:23:24;19.60;41.70
48043;DHT22;33988;47.992;8.820;2022-09-20T14:28:42;19.60;41.90
48043;DHT22;33988;47.992;8.820;2022-09-20T14:31:30;19.60;42.20
48043;DHT22;33988;47.992;8.820;2022-09-20T14:34:01;19.50;42.50
48043;DHT22;33988;47.992;8.820;2022-09-20T14:36:31;19.60;42.60
48043;DHT22;33988;47.992;8.820;2022-09-20T14:39:03;19.60;42.80
48043;DHT22;33988;47.992;8.820;2022-09-20T14:41:37;19.50;42.80
48043;DHT22;33988;47.992;8.820;2022-09-20T14:47:12;19.50;42.80
48043;DHT22;33988;47.992;8.820;2022-09-20T14:49:43;19.40;43.10
48043;DHT22;33988;47.992;8.820;2022-09-20T14:55:15;19.30;43.40
48043;DHT22;33988;47.992;8.820;2022-09-20T14:57:44;19.30;43.40
48043;DHT22;33988;47.992;8.820;2022-09-20T15:00:19;19.30;43.40
48043;DHT22;33988;47.992;8.820;2022-09-20T15:02:46;19.20;43.60
48043;DHT22;33988;47.992;8.820;2022-09-20T15:05:24;19.20;43.70
48043;DHT22;33988;47.992;8.820;2022-09-20T15:07:54;19.10;43.80
48043;DHT22;33988;47.992;8.820;2022-09-20T15:10:24;19.10;44.00
48043;DHT22;33988;47.992;8.820;2022-09-20T15:12:53;19.10;44.10
48043;DHT22;33988;47.992;8.820;2022-09-20T15:15:20;19.00;44.00
48043;DHT22;33988;47.992;8.820;2022-09-20T15:17:50;19.00;44.00
48043;DHT22;33988;47.992;8.820;2022-09-20T15:20:20;18.90;43.90
48043;DHT22;33988;47.992;8.820;2022-09-20T15:22:50;18.90;43.70
48043;DHT22;33988;47.992;8.820;2022-09-20T15:25:19;18.80;43.60
48043;DHT22;33988;47.992;8.820;2022-09-20T15:27:49;18.80;43.70
48043;DHT22;33988;47.992;8.820;2022-09-20T15:30:18;18.80;43.90
48043;DHT22;33988;47.992;8.820;2022-09-20T15:32:48;18.70;44.10
48043;DHT22;33988;47.992;8.820;2022-09-20T15:35:18;18.70;44.20
48043;DHT22;33988;47.992;8.820;2022-09-20T15:37:45;18.70;44.30
48043;DHT22;33988;47.992;8.820;2022-09-20T15:40:14;18.70;44.40
48043;DHT22;33988;47.992;8.820;2022-09-20T15:42:41;18.70;44.50
48043;DHT22;33988;47.992;8.820;2022-09-20T15:45:11;18.70;44.50
48043;DHT22;33988;47.992;8.820;2022-09-20T15:47:53;18.60;44.50
48043;DHT22;33988;47.992;8.820;2022-09-20T15:50:23;18.60;44.20
48043;DHT22;33988;47.992;8.820;2022-09-20T15:52:50;18.60;44.30
48043;DHT22;33988;47.992;8.820;2022-09-20T15:55:18;18.60;44.40
48043;DHT22;33988;47.992;8.820;2022-09-20T15:57:46;18.60;44.80
48043;DHT22;33988;47.992;8.820;2022-09-20T16:00:18;18.60;44.80
48043;DHT22;33988;47.992;8.820;2022-09-20T16:02:48;18.60;44.80
48043;DHT22;33988;47.992;8.820;2022-09-20T16:05:15;18.60;44.90
48043;DHT22;33988;47.992;8.820;2022-09-20T16:07:42;18.60;45.10
48043;DHT22;33988;47.992;8.820;2022-09-20T16:10:15;18.60;45.00
48043;DHT22;33988;47.992;8.820;2022-09-20T16:12:42;18.60;44.90
48043;DHT22;33988;47.992;8.820;2022-09-20T16:15:17;18.50;44.90
48043;DHT22;33988;47.992;8.820;2022-09-20T16:17:44;18.50;45.10
48043;DHT22;33988;47.992;8.820;2022-09-20T16:20:29;18.50;45.20
48043;DHT22;33988;47.992;8.820;2022-09-20T16:22:56;18.40;45.20
48043;DHT22;33988;47.992;8.820;2022-09-20T16:25:25;18.30;45.30
48043;DHT22;33988;47.992;8.820;2022-09-20T16:27:52;18.30;45.30
48043;DHT22;33988;47.992;8.820;2022-09-20T16:30:24;18.20;45.50
48043;DHT22;33988;47.992;8.820;2022-09-20T16:32:50;18.20;45.50
48043;DHT22;33988;47.992;8.820;2022-09-20T16:35:20;18.10;45.40
48043;DHT22;33988;47.992;8.820;2022-09-20T16:37:47;18.10;45.40
48043;DHT22;33988;47.992;8.820;2022-09-20T16:40:14;18.00;45.40
48043;DHT22;33988;47.992;8.820;2022-09-20T16:42:43;18.00;45.50
48043;DHT22;33988;47.992;8.820;2022-09-20T16:45:20;18.00;45.60
48043;DHT22;33988;47.992;8.820;2022-09-20T16:47:50;18.00;45.60
48043;DHT22;33988;47.992;8.820;2022-09-20T16:50:25;17.90;45.60
48043;DHT22;33988;47.992;8.820;2022-09-20T16:52:52;17.90;45.60
48043;DHT22;33988;47.992;8.820;2022-09-20T16:55:19;17.90;45.70
48043;DHT22;33988;47.992;8.820;2022-09-20T16:57:49;17.80;45.70
48043;DHT22;33988;47.992;8.820;2022-09-20T17:00:19;17.80;45.80
48043;DHT22;33988;47.992;8.820;2022-09-20T17:02:48;17.80;46.10
48043;DHT22;33988;47.992;8.820;2022-09-20T17:05:20;17.70;46.30
48043;DHT22;33988;47.992;8.820;2022-09-20T17:07:47;17.60;46.50
48043;DHT22;33988;47.992;8.820;2022-09-20T17:10:14;17.60;46.60
48043;DHT22;33988;47.992;8.820;2022-09-20T17:12:41;17.50;46.70
48043;DHT22;33988;47.992;8.820;2022-09-20T17:15:11;17.40;46.80
48043;DHT22;33988;47.992;8.820;2022-09-20T17:17:43;17.30;46.80
48043;DHT22;33988;47.992;8.820;2022-09-20T17:20:15;17.20;47.10
48043;DHT22;33988;47.992;8.820;2022-09-20T17:22:42;17.20;47.10
48043;DHT22;33988;47.992;8.820;2022-09-20T17:25:11;17.10;47.10
48043;DHT22;33988;47.992;8.820;2022-09-20T17:27:41;17.00;47.00
48043;DHT22;33988;47.992;8.820;2022-09-20T17:30:11;16.90;47.10
48043;DHT22;33988;47.992;8.820;2022-09-20T17:32:38;16.90;47.30
48043;DHT22;33988;47.992;8.820;2022-09-20T17:35:05;16.80;47.40
48043;DHT22;33988;47.992;8.820;2022-09-20T17:37:32;16.70;47.50
48043;DHT22;33988;47.992;8.820;2022-09-20T17:40:02;16.60;47.50
48043;DHT22;33988;47.992;8.820;2022-09-20T17:42:29;16.60;47.70
48043;DHT22;33988;47.992;8.820;2022-09-20T17:45:03;16.50;47.80
48043;DHT22;33988;47.992;8.820;2022-09-20T17:47:31;16.40;48.00
48043;DHT22;33988;47.992;8.820;2022-09-20T17:50:01;16.30;48.20
48043;DHT22;33988;47.992;8.820;2022-09-20T17:52:28;16.20;48.30
48043;DHT22;33988;47.992;8.820;2022-09-20T17:54:57;16.20;48.50
48043;DHT22;33988;47.992;8.820;2022-09-20T17:57:26;16.10;48.70
48043;DHT22;33988;47.992;8.820;2022-09-20T17:59:53;16.00;48.70
48043;DHT22;33988;47.992;8.820;2022-09-20T18:02:24;15.90;48.90
48043;DHT22;33988;47.992;8.820;2022-09-20T18:04:56;15.90;49.10
48043;DHT22;33988;47.992;8.820;2022-09-20T18:07:23;15.80;49.20
48043;DHT22;33988;47.992;8.820;2022-09-20T18:09:52;15.80;49.50
48043;DHT22;33988;47.992;8.820;2022-09-20T18:12:19;15.70;49.70
48043;DHT22;33988;47.992;8.820;2022-09-20T18:14:47;15.70;49.80
48043;DHT22;33988;47.992;8.820;2022-09-20T18:17:14;15.60;49.90
48043;DHT22;33988;47.992;8.820;2022-09-20T18:19:40;15.60;50.20
48043;DHT22;33988;47.992;8.820;2022-09-20T18:22:10;15.50;50.30
48043;DHT22;33988;47.992;8.820;2022-09-20T18:24:37;15.50;50.50
48043;DHT22;33988;47.992;8.820;2022-09-20T18:27:03;15.50;50.60
48043;DHT22;33988;47.992;8.820;2022-09-20T18:29:32;15.50;50.70
48043;DHT22;33988;47.992;8.820;2022-09-20T18:32:02;15.50;50.80
48043;DHT22;33988;47.992;8.820;2022-09-20T18:34:29;15.50;50.80
48043;DHT22;33988;47.992;8.820;2022-09-20T18:37:00;15.50;50.70
48043;DHT22;33988;47.992;8.820;2022-09-20T18:39:40;15.50;51.40
48043;DHT22;33988;47.992;8.820;2022-09-20T18:42:12;15.50;50.80
48043;DHT22;33988;47.992;8.820;2022-09-20T18:44:39;15.50;50.90
48043;DHT22;33988;47.992;8.820;2022-09-20T18:47:09;15.50;50.90
48043;DHT22;33988;47.992;8.820;2022-09-20T18:49:38;15.50;51.00
48043;DHT22;33988;47.992;8.820;2022-09-20T18:52:05;15.50;51.10
48043;DHT22;33988;47.992;8.820;2022-09-20T18:54:34;15.50;51.30
48043;DHT22;33988;47.992;8.820;2022-09-20T18:57:01;15.50;51.30
48043;DHT22;33988;47.992;8.820;2022-09-20T18:59:31;15.50;51.40
48043;DHT22;33988;47.992;8.820;2022-09-20T19:05:50;15.40;52.00
48043;DHT22;33988;47.992;8.820;2022-09-20T19:08:27;15.40;51.70
48043;DHT22;33988;47.992;8.820;2022-09-20T19:11:16;15.40;51.80
48043;DHT22;33988;47.992;8.820;2022-09-20T19:14:01;15.40;52.10
48043;DHT22;33988;47.992;8.820;2022-09-20T19:16:33;15.40;52.00
48043;DHT22;33988;47.992;8.820;2022-09-20T19:25:48;15.40;52.00
48043;DHT22;33988;47.992;8.820;2022-09-20T19:28:15;15.30;52.30
48043;DHT22;33988;47.992;8.820;2022-09-20T19:30:45;15.40;52.10
48043;DHT22;33988;47.992;8.820;2022-09-20T19:33:16;15.40;52.30
48043;DHT22;33988;47.992;8.820;2022-09-20T19:35:50;15.40;52.40
48043;DHT22;33988;47.992;8.820;2022-09-20T19:41:26;15.30;52.50
48043;DHT22;33988;47.992;8.820;2022-09-20T19:50:13;15.30;52.70
48043;DHT22;33988;47.992;8.820;2022-09-20T19:52:44;15.30;52.80
48043;DHT22;33988;47.992;8.820;2022-09-20T19:55:12;15.30;52.50
48043;DHT22;33988;47.992;8.820;2022-09-20T19:57:44;15.30;52.50
48043;DHT22;33988;47.992;8.820;2022-09-20T20:00:19;15.30;52.70
48043;DHT22;33988;47.992;8.820;2022-09-20T20:02:48;15.30;52.70
48043;DHT22;33988;47.992;8.820;2022-09-20T20:05:23;15.20;52.80
48043;DHT22;33988;47.992;8.820;2022-09-20T20:16:39;15.30;53.00
48043;DHT22;33988;47.992;8.820;2022-09-20T20:20:16;15.20;52.90
48043;DHT22;33988;47.992;8.820;2022-09-20T20:26:05;15.10;53.20
48043;DHT22;33988;47.992;8.820;2022-09-20T20:28:34;15.20;53.40
48043;DHT22;33988;47.992;8.820;2022-09-20T20:31:03;15.20;53.10
48043;DHT22;33988;47.992;8.820;2022-09-20T20:33:31;15.20;53.20
48043;DHT22;33988;47.992;8.820;2022-09-20T20:36:00;15.10;53.30
48043;DHT22;33988;47.992;8.820;2022-09-20T20:38:27;15.20;53.30
48043;DHT22;33988;47.992;8.820;2022-09-20T20:41:06;15.20;53.40
48043;DHT22;33988;47.992;8.820;2022-09-20T20:43:39;15.10;53.50
48043;DHT22;33988;47.992;8.820;2022-09-20T20:46:12;15.10;53.50
48043;DHT22;33988;47.992;8.820;2022-09-20T20:48:44;15.10;53.40
48043;DHT22;33988;47.992;8.820;2022-09-20T20:51:21;15.10;53.50
48043;DHT22;33988;47.992;8.820;2022-09-20T20:53:51;15.10;53.60
48043;DHT22;33988;47.992;8.820;2022-09-20T20:56:24;15.10;53.60
48043;DHT22;33988;47.992;8.820;2022-09-20T20:58:53;15.10;53.70
48043;DHT22;33988;47.992;8.820;2022-09-20T21:01:21;15.10;53.80
48043;DHT22;33988;47.992;8.820;2022-09-20T21:03:56;15.10;53.80
48043;DHT22;33988;47.992;8.820;2022-09-20T21:06:31;15.10;53.80
48043;DHT22;33988;47.992;8.820;2022-09-20T21:09:02;15.10;54.00
48043;DHT22;33988;47.992;8.820;2022-09-20T21:11:33;15.10;53.90
48043;DHT22;33988;47.992;8.820;2022-09-20T21:14:05;15.20;53.90
48043;DHT22;33988;47.992;8.820;2022-09-20T21:16:39;15.20;53.90
48043;DHT22;33988;47.992;8.820;2022-09-20T21:19:16;15.10;54.00
48043;DHT22;33988;47.992;8.820;2022-09-20T21:21:45;15.10;54.00
48043;DHT22;33988;47.992;8.820;2022-09-20T21:24:14;15.20;54.00
48043;DHT22;33988;47.992;8.820;2022-09-20T21:26:43;15.10;54.00
48043;DHT22;33988;47.992;8.820;2022-09-20T21:29:13;15.10;54.00
48043;DHT22;33988;47.992;8.820;2022-09-20T21:31:45;15.20;53.50
48043;DHT22;33988;47.992;8.820;2022-09-20T21:34:13;15.10;54.10
48043;DHT22;33988;47.992;8.820;2022-09-20T21:36:41;15.10;54.10
48043;DHT22;33988;47.992;8.820;2022-09-20T21:39:09;15.10;54.20
48043;DHT22;33988;47.992;8.820;2022-09-20T21:41:41;15.10;54.30
48043;DHT22;33988;47.992;8.820;2022-09-20T21:44:08;15.10;54.40
48043;DHT22;33988;47.992;8.820;2022-09-20T21:46:39;15.00;54.30
48043;DHT22;33988;47.992;8.820;2022-09-20T21:49:09;15.00;54.30
48043;DHT22;33988;47.992;8.820;2022-09-20T21:51:41;15.00;54.40
48043;DHT22;33988;47.992;8.820;2022-09-20T21:54:09;15.00;54.40
48043;DHT22;33988;47.992;8.820;2022-09-20T21:56:37;15.00;54.40
48043;DHT22;33988;47.992;8.820;2022-09-20T21:59:08;15.00;54.50
48043;DHT22;33988;47.992;8.820;2022-09-20T22:01:37;15.00;54.50
48043;DHT22;33988;47.992;8.820;2022-09-20T22:04:09;15.00;54.50
48043;DHT22;33988;47.992;8.820;2022-09-20T22:06:44;14.90;54.60
48043;DHT22;33988;47.992;8.820;2022-09-20T22:09:14;14.90;54.70
48043;DHT22;33988;47.992;8.820;2022-09-20T22:11:43;15.00;54.60
48043;DHT22;33988;47.992;8.820;2022-09-20T22:14:13;14.90;54.60
48043;DHT22;33988;47.992;8.820;2022-09-20T22:16:45;15.00;54.60
48043;DHT22;33988;47.992;8.820;2022-09-20T22:19:17;15.00;54.60
48043;DHT22;33988;47.992;8.820;2022-09-20T22:21:46;15.00;54.70
48043;DHT22;33988;47.992;8.820;2022-09-20T22:24:15;15.00;54.70
48043;DHT22;33988;47.992;8.820;2022-09-20T22:26:46;14.90;54.70
48043;DHT22;33988;47.992;8.820;2022-09-20T22:29:17;14.90;54.80
48043;DHT22;33988;47.992;8.820;2022-09-20T22:31:48;14.90;54.80
48043;DHT22;33988;47.992;8.820;2022-09-20T22:34:20;14.90;54.90
48043;DHT22;33988;47.992;8.820;2022-09-20T22:36:48;14.90;54.90
48043;DHT22;33988;47.992;8.820;2022-09-20T22:39:15;14.90;55.00
48043;DHT22;33988;47.992;8.820;2022-09-20T22:41:46;14.90;55.00
48043;DHT22;33988;47.992;8.820;2022-09-20T22:44:13;14.90;55.10